sensor_id;sensor_type;location;lat;lon;timestamp;P1;durP1;ratioP1;P2;durP2;ratioP2
40611;SDS011;26317;44.894;20.286;2023-05-13T00:00:16;12.88;;;11.55;;
40611;SDS011;26317;44.894;20.286;2023-05-13T00:02:49;12.65;;;11.35;;
40611;SDS011;26317;44.894;20.286;2023-05-13T00:05:20;12.48;;;11.27;;
40611;SDS011;26317;44.894;20.286;2023-05-13T00:07:50;13.32;;;12.10;;
40611;SDS011;26317;44.894;20.286;2023-05-13T00:10:20;13.87;;;12.53;;
40611;SDS011;26317;44.894;20.286;2023-05-13T00:12:50;14.40;;;12.90;;
40611;SDS011;26317;44.894;20.286;2023-05-13T00:15:23;11.88;;;10.77;;
40611;SDS011;26317;44.894;20.286;2023-05-13T00:17:56;12.35;;;10.98;;
40611;SDS011;26317;44.894;20.286;2023-05-13T00:20:26;12.98;;;11.50;;
40611;SDS011;26317;44.894;20.286;2023-05-13T00:22:59;12.55;;;11.23;;
40611;SDS011;26317;44.894;20.286;2023-05-13T00:25:30;13.30;;;10.50;;
40611;SDS011;26317;44.894;20.286;2023-05-13T00:28:00;13.18;;;11.75;;
40611;SDS011;26317;44.894;20.286;2023-05-13T00:30:33;12.43;;;11.25;;
40611;SDS011;26317;44.894;20.286;2023-05-13T00:33:05;13.20;;;11.90;;
40611;SDS011;26317;44.894;20.286;2023-05-13T00:35:35;12.90;;;11.70;;
40611;SDS011;26317;44.894;20.286;2023-05-13T00:38:05;13.50;;;12.23;;
40611;SDS011;26317;44.894;20.286;2023-05-13T00:40:36;13.93;;;11.43;;
40611;SDS011;26317;44.894;20.286;2023-05-13T00:43:09;11.73;;;10.52;;
40611;SDS011;26317;44.894;20.286;2023-05-13T00:45:44;12.85;;;11.10;;
40611;SDS011;26317;44.894;20.286;2023-05-13T00:48:14;14.38;;;11.05;;
40611;SDS011;26317;44.894;20.286;2023-05-13T00:50:44;13.07;;;11.25;;
40611;SDS011;26317;44.894;20.286;2023-05-13T00:53:15;12.15;;;10.95;;
40611;SDS011;26317;44.894;20.286;2023-05-13T00:55:46;13.15;;;11.63;;
40611;SDS011;26317;44.894;20.286;2023-05-13T00:58:16;15.95;;;10.82;;
40611;SDS011;26317;44.894;20.286;2023-05-13T01:00:50;13.63;;;12.23;;
40611;SDS011;26317;44.894;20.286;2023-05-13T01:03:28;12.02;;;10.82;;
40611;SDS011;26317;44.894;20.286;2023-05-13T01:06:07;12.32;;;11.15;;
40611;SDS011;26317;44.894;20.286;2023-05-13T01:08:42;13.73;;;11.05;;
40611;SDS011;26317;44.894;20.286;2023-05-13T01:11:24;11.80;;;10.65;;
40611;SDS011;26317;44.894;20.286;2023-05-13T01:13:58;12.02;;;10.80;;
40611;SDS011;26317;44.894;20.286;2023-05-13T01:16:36;12.02;;;10.55;;
40611;SDS011;26317;44.894;20.286;2023-05-13T01:19:13;12.40;;;11.30;;
40611;SDS011;26317;44.894;20.286;2023-05-13T01:21:56;11.90;;;10.80;;
40611;SDS011;26317;44.894;20.286;2023-05-13T01:24:27;11.50;;;10.30;;
40611;SDS011;26317;44.894;20.286;2023-05-13T01:26:57;12.48;;;11.25;;
40611;SDS011;26317;44.894;20.286;2023-05-13T01:29:29;13.15;;;11.90;;
40611;SDS011;26317;44.894;20.286;2023-05-13T01:32:01;12.18;;;10.88;;
40611;SDS011;26317;44.894;20.286;2023-05-13T01:34:32;14.95;;;10.93;;
40611;SDS011;26317;44.894;20.286;2023-05-13T01:37:06;14.90;;;11.52;;
40611;SDS011;26317;44.894;20.286;2023-05-13T01:39:37;13.50;;;12.30;;
40611;SDS011;26317;44.894;20.286;2023-05-13T01:42:12;13.50;;;12.20;;
40611;SDS011;26317;44.894;20.286;2023-05-13T01:44:43;16.60;;;13.05;;
40611;SDS011;26317;44.894;20.286;2023-05-13T01:47:13;14.13;;;12.88;;
40611;SDS011;26317;44.894;20.286;2023-05-13T01:49:44;12.60;;;11.45;;
40611;SDS011;26317;44.894;20.286;2023-05-13T01:52:17;14.48;;;12.32;;
40611;SDS011;26317;44.894;20.286;2023-05-13T01:54:47;15.80;;;11.32;;
40611;SDS011;26317;44.894;20.286;2023-05-13T01:57:18;13.02;;;11.73;;
40611;SDS011;26317;44.894;20.286;2023-05-13T01:59:49;12.15;;;10.95;;
40611;SDS011;26317;44.894;20.286;2023-05-13T02:02:19;12.32;;;11.23;;
40611;SDS011;26317;44.894;20.286;2023-05-13T02:04:50;12.30;;;10.18;;
40611;SDS011;26317;44.894;20.286;2023-05-13T02:07:25;12.40;;;11.15;;
40611;SDS011;26317;44.894;20.286;2023-05-13T02:09:56;14.88;;;10.55;;
40611;SDS011;26317;44.894;20.286;2023-05-13T02:12:26;11.25;;;10.25;;
40611;SDS011;26317;44.894;20.286;2023-05-13T02:14:56;10.93;;;9.88;;
40611;SDS011;26317;44.894;20.286;2023-05-13T02:17:29;11.02;;;9.85;;
40611;SDS011;26317;44.894;20.286;2023-05-13T02:20:03;11.50;;;10.50;;
40611;SDS011;26317;44.894;20.286;2023-05-13T02:22:37;12.00;;;10.80;;
40611;SDS011;26317;44.894;20.286;2023-05-13T02:25:08;11.40;;;10.07;;
40611;SDS011;26317;44.894;20.286;2023-05-13T02:30:08;10.88;;;9.88;;
40611;SDS011;26317;44.894;20.286;2023-05-13T02:32:42;12.07;;;10.75;;
40611;SDS011;26317;44.894;20.286;2023-05-13T02:35:13;11.57;;;10.35;;
40611;SDS011;26317;44.894;20.286;2023-05-13T02:37:46;14.18;;;10.23;;
40611;SDS011;26317;44.894;20.286;2023-05-13T02:40:17;10.43;;;9.52;;
40611;SDS011;26317;44.894;20.286;2023-05-13T02:42:49;11.45;;;10.25;;
40611;SDS011;26317;44.894;20.286;2023-05-13T02:45:27;12.10;;;10.05;;
40611;SDS011;26317;44.894;20.286;2023-05-13T02:48:00;13.15;;;10.90;;
40611;SDS011;26317;44.894;20.286;2023-05-13T02:50:31;11.93;;;9.90;;
40611;SDS011;26317;44.894;20.286;2023-05-13T02:53:07;11.70;;;10.43;;
40611;SDS011;26317;44.894;20.286;2023-05-13T02:55:43;12.32;;;11.10;;
40611;SDS011;26317;44.894;20.286;2023-05-13T02:58:14;13.37;;;12.27;;
40611;SDS011;26317;44.894;20.286;2023-05-13T03:00:49;12.48;;;11.25;;
40611;SDS011;26317;44.894;20.286;2023-05-13T03:03:22;13.63;;;11.45;;
40611;SDS011;26317;44.894;20.286;2023-05-13T03:05:52;16.30;;;12.70;;
40611;SDS011;26317;44.894;20.286;2023-05-13T03:08:25;12.50;;;11.30;;
40611;SDS011;26317;44.894;20.286;2023-05-13T03:10:56;12.82;;;11.68;;
40611;SDS011;26317;44.894;20.286;2023-05-13T03:13:31;12.95;;;10.77;;
40611;SDS011;26317;44.894;20.286;2023-05-13T03:16:01;12.23;;;10.50;;
40611;SDS011;26317;44.894;20.286;2023-05-13T03:18:32;11.85;;;9.90;;
40611;SDS011;26317;44.894;20.286;2023-05-13T03:21:03;11.27;;;9.88;;
40611;SDS011;26317;44.894;20.286;2023-05-13T03:23:36;10.97;;;9.87;;
40611;SDS011;26317;44.894;20.286;2023-05-13T03:26:07;10.02;;;9.02;;
40611;SDS011;26317;44.894;20.286;2023-05-13T03:28:38;10.02;;;9.13;;
40611;SDS011;26317;44.894;20.286;2023-05-13T03:31:08;12.63;;;9.60;;
40611;SDS011;26317;44.894;20.286;2023-05-13T03:33:39;12.50;;;11.25;;
40611;SDS011;26317;44.894;20.286;2023-05-13T03:36:10;14.13;;;12.93;;
40611;SDS011;26317;44.894;20.286;2023-05-13T03:38:43;14.50;;;13.00;;
40611;SDS011;26317;44.894;20.286;2023-05-13T03:41:15;15.25;;;13.70;;
40611;SDS011;26317;44.894;20.286;2023-05-13T03:43:46;13.82;;;12.40;;
40611;SDS011;26317;44.894;20.286;2023-05-13T03:46:16;13.77;;;12.30;;
40611;SDS011;26317;44.894;20.286;2023-05-13T03:48:47;12.00;;;10.90;;
40611;SDS011;26317;44.894;20.286;2023-05-13T03:51:18;10.45;;;9.30;;
40611;SDS011;26317;44.894;20.286;2023-05-13T03:53:55;10.18;;;9.18;;
40611;SDS011;26317;44.894;20.286;2023-05-13T03:56:25;12.43;;;8.15;;
40611;SDS011;26317;44.894;20.286;2023-05-13T03:58:56;9.88;;;8.85;;
40611;SDS011;26317;44.894;20.286;2023-05-13T04:01:26;11.70;;;8.33;;
40611;SDS011;26317;44.894;20.286;2023-05-13T04:03:56;9.37;;;7.47;;
40611;SDS011;26317;44.894;20.286;2023-05-13T04:06:30;8.20;;;7.43;;
40611;SDS011;26317;44.894;20.286;2023-05-13T04:09:04;9.93;;;7.53;;
40611;SDS011;26317;44.894;20.286;2023-05-13T04:11:34;8.43;;;7.63;;
40611;SDS011;26317;44.894;20.286;2023-05-13T04:14:04;8.87;;;8.03;;
40611;SDS011;26317;44.894;20.286;2023-05-13T04:16:34;11.23;;;10.07;;
40611;SDS011;26317;44.894;20.286;2023-05-13T04:19:05;8.93;;;8.02;;
40611;SDS011;26317;44.894;20.286;2023-05-13T04:21:35;10.97;;;7.80;;
40611;SDS011;26317;44.894;20.286;2023-05-13T04:24:11;9.27;;;8.30;;
40611;SDS011;26317;44.894;20.286;2023-05-13T04:26:41;10.32;;;8.60;;
40611;SDS011;26317;44.894;20.286;2023-05-13T04:29:11;10.00;;;8.35;;
40611;SDS011;26317;44.894;20.286;2023-05-13T04:31:44;8.80;;;8.00;;
40611;SDS011;26317;44.894;20.286;2023-05-13T04:34:15;12.40;;;9.18;;
40611;SDS011;26317;44.894;20.286;2023-05-13T04:36:48;10.77;;;8.93;;
40611;SDS011;26317;44.894;20.286;2023-05-13T04:39:21;9.20;;;8.30;;
40611;SDS011;26317;44.894;20.286;2023-05-13T04:41:51;9.52;;;8.57;;
40611;SDS011;26317;44.894;20.286;2023-05-13T04:44:21;10.87;;;9.20;;
40611;SDS011;26317;44.894;20.286;2023-05-13T04:46:51;14.95;;;9.57;;
40611;SDS011;26317;44.894;20.286;2023-05-13T04:49:22;10.57;;;9.47;;
40611;SDS011;26317;44.894;20.286;2023-05-13T04:51:55;10.05;;;9.10;;
40611;SDS011;26317;44.894;20.286;2023-05-13T04:54:29;10.27;;;9.38;;
40611;SDS011;26317;44.894;20.286;2023-05-13T04:57:01;9.98;;;8.98;;
40611;SDS011;26317;44.894;20.286;2023-05-13T04:59:32;9.38;;;8.32;;
40611;SDS011;26317;44.894;20.286;2023-05-13T05:02:02;20.50;;;11.18;;
40611;SDS011;26317;44.894;20.286;2023-05-13T05:04:36;17.60;;;7.82;;
40611;SDS011;26317;44.894;20.286;2023-05-13T05:07:12;10.65;;;8.60;;
40611;SDS011;26317;44.894;20.286;2023-05-13T05:09:45;8.40;;;7.60;;
40611;SDS011;26317;44.894;20.286;2023-05-13T05:12:19;7.90;;;7.20;;
40611;SDS011;26317;44.894;20.286;2023-05-13T05:14:50;9.32;;;8.43;;
40611;SDS011;26317;44.894;20.286;2023-05-13T05:17:21;9.60;;;7.70;;
40611;SDS011;26317;44.894;20.286;2023-05-13T05:19:54;11.52;;;8.07;;
40611;SDS011;26317;44.894;20.286;2023-05-13T05:22:24;9.57;;;7.57;;
40611;SDS011;26317;44.894;20.286;2023-05-13T05:24:58;8.38;;;7.68;;
40611;SDS011;26317;44.894;20.286;2023-05-13T05:27:29;8.90;;;7.88;;
40611;SDS011;26317;44.894;20.286;2023-05-13T05:29:59;8.57;;;7.72;;
40611;SDS011;26317;44.894;20.286;2023-05-13T05:32:32;8.25;;;7.38;;
40611;SDS011;26317;44.894;20.286;2023-05-13T05:35:04;11.00;;;8.75;;
40611;SDS011;26317;44.894;20.286;2023-05-13T05:37:35;8.70;;;7.25;;
40611;SDS011;26317;44.894;20.286;2023-05-13T05:40:09;11.77;;;7.43;;
40611;SDS011;26317;44.894;20.286;2023-05-13T05:42:40;8.90;;;7.47;;
40611;SDS011;26317;44.894;20.286;2023-05-13T05:45:10;14.82;;;8.90;;
40611;SDS011;26317;44.894;20.286;2023-05-13T05:47:41;11.77;;;8.52;;
40611;SDS011;26317;44.894;20.286;2023-05-13T05:50:11;11.77;;;7.85;;
40611;SDS011;26317;44.894;20.286;2023-05-13T05:52:45;9.48;;;8.18;;
40611;SDS011;26317;44.894;20.286;2023-05-13T05:55:19;7.68;;;6.88;;
40611;SDS011;26317;44.894;20.286;2023-05-13T05:57:50;8.68;;;6.60;;
40611;SDS011;26317;44.894;20.286;2023-05-13T06:00:22;9.02;;;7.00;;
40611;SDS011;26317;44.894;20.286;2023-05-13T06:02:57;12.05;;;6.55;;
40611;SDS011;26317;44.894;20.286;2023-05-13T06:05:27;7.35;;;6.65;;
40611;SDS011;26317;44.894;20.286;2023-05-13T06:07:58;7.10;;;6.40;;
40611;SDS011;26317;44.894;20.286;2023-05-13T06:10:31;7.57;;;6.38;;
40611;SDS011;26317;44.894;20.286;2023-05-13T06:13:02;9.75;;;6.18;;
40611;SDS011;26317;44.894;20.286;2023-05-13T06:18:04;8.87;;;6.40;;
40611;SDS011;26317;44.894;20.286;2023-05-13T06:20:35;10.82;;;6.80;;
40611;SDS011;26317;44.894;20.286;2023-05-13T06:23:05;8.20;;;6.60;;
40611;SDS011;26317;44.894;20.286;2023-05-13T06:25:38;7.72;;;6.38;;
40611;SDS011;26317;44.894;20.286;2023-05-13T06:28:09;7.45;;;6.10;;
40611;SDS011;26317;44.894;20.286;2023-05-13T06:30:44;11.20;;;6.57;;
40611;SDS011;26317;44.894;20.286;2023-05-13T06:33:16;7.05;;;6.35;;
40611;SDS011;26317;44.894;20.286;2023-05-13T06:35:47;6.25;;;5.65;;
40611;SDS011;26317;44.894;20.286;2023-05-13T06:38:19;7.80;;;6.40;;
40611;SDS011;26317;44.894;20.286;2023-05-13T06:40:57;8.40;;;6.18;;
40611;SDS011;26317;44.894;20.286;2023-05-13T06:43:32;36.38;;;9.98;;
40611;SDS011;26317;44.894;20.286;2023-05-13T06:46:18;12.73;;;7.05;;
40611;SDS011;26317;44.894;20.286;2023-05-13T06:48:49;7.27;;;6.57;;
40611;SDS011;26317;44.894;20.286;2023-05-13T06:51:23;9.05;;;6.35;;
40611;SDS011;26317;44.894;20.286;2023-05-13T06:53:58;14.15;;;6.03;;
40611;SDS011;26317;44.894;20.286;2023-05-13T06:56:31;7.30;;;6.47;;
40611;SDS011;26317;44.894;20.286;2023-05-13T06:59:06;6.43;;;5.45;;
40611;SDS011;26317;44.894;20.286;2023-05-13T07:01:36;10.63;;;6.55;;
40611;SDS011;26317;44.894;20.286;2023-05-13T07:04:09;9.07;;;5.90;;
40611;SDS011;26317;44.894;20.286;2023-05-13T07:06:39;8.15;;;5.93;;
40611;SDS011;26317;44.894;20.286;2023-05-13T07:09:10;7.93;;;6.00;;
40611;SDS011;26317;44.894;20.286;2023-05-13T07:11:43;7.43;;;6.22;;
40611;SDS011;26317;44.894;20.286;2023-05-13T07:14:14;7.20;;;6.10;;
40611;SDS011;26317;44.894;20.286;2023-05-13T07:16:44;7.00;;;5.93;;
40611;SDS011;26317;44.894;20.286;2023-05-13T07:19:14;11.80;;;6.00;;
40611;SDS011;26317;44.894;20.286;2023-05-13T07:21:45;9.30;;;6.03;;
40611;SDS011;26317;44.894;20.286;2023-05-13T07:26:49;8.38;;;5.63;;
40611;SDS011;26317;44.894;20.286;2023-05-13T07:29:19;5.72;;;5.05;;
40611;SDS011;26317;44.894;20.286;2023-05-13T07:31:55;12.20;;;6.00;;
40611;SDS011;26317;44.894;20.286;2023-05-13T07:34:25;9.10;;;5.30;;
40611;SDS011;26317;44.894;20.286;2023-05-13T07:36:57;9.50;;;5.25;;
40611;SDS011;26317;44.894;20.286;2023-05-13T07:39:27;12.80;;;4.97;;
40611;SDS011;26317;44.894;20.286;2023-05-13T07:42:00;8.18;;;5.85;;
40611;SDS011;26317;44.894;20.286;2023-05-13T07:44:31;10.18;;;5.82;;
40611;SDS011;26317;44.894;20.286;2023-05-13T07:47:02;11.07;;;4.97;;
40611;SDS011;26317;44.894;20.286;2023-05-13T07:49:33;8.43;;;5.18;;
40611;SDS011;26317;44.894;20.286;2023-05-13T07:52:04;7.55;;;5.03;;
40611;SDS011;26317;44.894;20.286;2023-05-13T07:54:34;5.13;;;4.63;;
40611;SDS011;26317;44.894;20.286;2023-05-13T07:57:08;7.07;;;4.93;;
40611;SDS011;26317;44.894;20.286;2023-05-13T07:59:41;5.78;;;5.05;;
40611;SDS011;26317;44.894;20.286;2023-05-13T08:02:11;5.82;;;5.15;;
40611;SDS011;26317;44.894;20.286;2023-05-13T08:04:45;6.32;;;4.90;;
40611;SDS011;26317;44.894;20.286;2023-05-13T08:07:15;6.20;;;5.60;;
40611;SDS011;26317;44.894;20.286;2023-05-13T08:09:46;7.18;;;4.22;;
40611;SDS011;26317;44.894;20.286;2023-05-13T08:12:18;11.55;;;5.15;;
40611;SDS011;26317;44.894;20.286;2023-05-13T08:14:49;6.35;;;5.00;;
40611;SDS011;26317;44.894;20.286;2023-05-13T08:17:22;9.27;;;5.13;;
40611;SDS011;26317;44.894;20.286;2023-05-13T08:22:25;6.97;;;5.13;;
40611;SDS011;26317;44.894;20.286;2023-05-13T08:25:00;7.50;;;4.30;;
40611;SDS011;26317;44.894;20.286;2023-05-13T08:30:10;10.35;;;4.90;;
40611;SDS011;26317;44.894;20.286;2023-05-13T08:32:44;6.50;;;4.80;;
40611;SDS011;26317;44.894;20.286;2023-05-13T08:35:14;6.13;;;5.10;;
40611;SDS011;26317;44.894;20.286;2023-05-13T08:37:45;6.40;;;4.80;;
40611;SDS011;26317;44.894;20.286;2023-05-13T08:40:16;5.22;;;4.20;;
40611;SDS011;26317;44.894;20.286;2023-05-13T08:42:49;6.18;;;4.55;;
40611;SDS011;26317;44.894;20.286;2023-05-13T08:45:24;5.47;;;3.78;;
40611;SDS011;26317;44.894;20.286;2023-05-13T08:47:58;8.25;;;4.95;;
40611;SDS011;26317;44.894;20.286;2023-05-13T08:50:30;6.43;;;4.07;;
40611;SDS011;26317;44.894;20.286;2023-05-13T08:53:01;6.18;;;3.97;;
40611;SDS011;26317;44.894;20.286;2023-05-13T08:55:31;2.78;;;2.58;;
40611;SDS011;26317;44.894;20.286;2023-05-13T08:58:06;6.18;;;3.65;;
40611;SDS011;26317;44.894;20.286;2023-05-13T09:00:38;9.57;;;3.55;;
40611;SDS011;26317;44.894;20.286;2023-05-13T09:03:09;5.57;;;2.53;;
40611;SDS011;26317;44.894;20.286;2023-05-13T09:05:40;4.95;;;3.55;;
40611;SDS011;26317;44.894;20.286;2023-05-13T09:08:14;5.50;;;3.83;;
40611;SDS011;26317;44.894;20.286;2023-05-13T09:10:45;5.95;;;3.50;;
40611;SDS011;26317;44.894;20.286;2023-05-13T09:15:48;6.18;;;3.47;;
40611;SDS011;26317;44.894;20.286;2023-05-13T09:18:19;6.45;;;3.53;;
40611;SDS011;26317;44.894;20.286;2023-05-13T09:20:51;5.68;;;3.47;;
40611;SDS011;26317;44.894;20.286;2023-05-13T09:23:22;5.55;;;3.35;;
40611;SDS011;26317;44.894;20.286;2023-05-13T09:25:52;4.60;;;3.67;;
40611;SDS011;26317;44.894;20.286;2023-05-13T09:28:25;7.28;;;4.20;;
40611;SDS011;26317;44.894;20.286;2023-05-13T09:30:55;4.20;;;3.17;;
40611;SDS011;26317;44.894;20.286;2023-05-13T09:33:28;6.05;;;3.20;;
40611;SDS011;26317;44.894;20.286;2023-05-13T09:36:02;5.68;;;3.63;;
40611;SDS011;26317;44.894;20.286;2023-05-13T09:38:34;4.50;;;3.30;;
40611;SDS011;26317;44.894;20.286;2023-05-13T09:41:05;9.27;;;4.57;;
40611;SDS011;26317;44.894;20.286;2023-05-13T09:43:38;8.93;;;4.72;;
40611;SDS011;26317;44.894;20.286;2023-05-13T09:46:08;9.93;;;4.25;;
40611;SDS011;26317;44.894;20.286;2023-05-13T09:48:42;8.32;;;4.07;;
40611;SDS011;26317;44.894;20.286;2023-05-13T09:51:14;4.47;;;3.80;;
40611;SDS011;26317;44.894;20.286;2023-05-13T09:53:45;9.23;;;4.22;;
40611;SDS011;26317;44.894;20.286;2023-05-13T09:56:18;4.65;;;3.75;;
40611;SDS011;26317;44.894;20.286;2023-05-13T09:58:54;8.27;;;4.03;;
40611;SDS011;26317;44.894;20.286;2023-05-13T10:01:24;5.50;;;4.25;;
40611;SDS011;26317;44.894;20.286;2023-05-13T10:03:57;7.25;;;4.05;;
40611;SDS011;26317;44.894;20.286;2023-05-13T10:06:29;9.48;;;4.68;;
40611;SDS011;26317;44.894;20.286;2023-05-13T10:11:32;12.48;;;3.63;;
40611;SDS011;26317;44.894;20.286;2023-05-13T10:14:07;4.82;;;2.97;;
40611;SDS011;26317;44.894;20.286;2023-05-13T10:16:38;5.53;;;2.63;;
40611;SDS011;26317;44.894;20.286;2023-05-13T10:19:09;2.83;;;2.03;;
40611;SDS011;26317;44.894;20.286;2023-05-13T10:21:44;3.30;;;2.63;;
40611;SDS011;26317;44.894;20.286;2023-05-13T10:24:16;6.07;;;2.83;;
40611;SDS011;26317;44.894;20.286;2023-05-13T10:26:47;5.50;;;3.30;;
40611;SDS011;26317;44.894;20.286;2023-05-13T10:29:22;4.20;;;2.80;;
40611;SDS011;26317;44.894;20.286;2023-05-13T10:31:57;6.78;;;3.67;;
40611;SDS011;26317;44.894;20.286;2023-05-13T10:34:28;4.40;;;3.20;;
40611;SDS011;26317;44.894;20.286;2023-05-13T10:37:05;6.03;;;4.10;;
40611;SDS011;26317;44.894;20.286;2023-05-13T10:39:56;7.10;;;3.88;;
40611;SDS011;26317;44.894;20.286;2023-05-13T10:42:48;8.95;;;4.63;;
40611;SDS011;26317;44.894;20.286;2023-05-13T10:45:27;5.65;;;4.00;;
40611;SDS011;26317;44.894;20.286;2023-05-13T10:48:04;7.90;;;4.30;;
40611;SDS011;26317;44.894;20.286;2023-05-13T10:50:35;8.15;;;3.72;;
40611;SDS011;26317;44.894;20.286;2023-05-13T10:53:07;6.50;;;4.20;;
40611;SDS011;26317;44.894;20.286;2023-05-13T10:55:39;7.88;;;4.13;;
40611;SDS011;26317;44.894;20.286;2023-05-13T10:58:13;5.45;;;3.63;;
40611;SDS011;26317;44.894;20.286;2023-05-13T11:00:50;8.82;;;4.45;;
40611;SDS011;26317;44.894;20.286;2023-05-13T11:03:27;7.65;;;4.30;;
40611;SDS011;26317;44.894;20.286;2023-05-13T11:05:59;8.40;;;3.63;;
40611;SDS011;26317;44.894;20.286;2023-05-13T11:08:43;5.15;;;3.55;;
40611;SDS011;26317;44.894;20.286;2023-05-13T11:14:02;4.93;;;3.70;;
40611;SDS011;26317;44.894;20.286;2023-05-13T11:16:43;7.80;;;3.28;;
40611;SDS011;26317;44.894;20.286;2023-05-13T11:19:18;4.78;;;3.72;;
40611;SDS011;26317;44.894;20.286;2023-05-13T11:21:53;6.72;;;4.30;;
40611;SDS011;26317;44.894;20.286;2023-05-13T11:24:25;8.23;;;4.57;;
40611;SDS011;26317;44.894;20.286;2023-05-13T11:26:56;7.15;;;3.20;;
40611;SDS011;26317;44.894;20.286;2023-05-13T11:29:28;8.30;;;3.85;;
40611;SDS011;26317;44.894;20.286;2023-05-13T11:32:05;7.30;;;3.20;;
40611;SDS011;26317;44.894;20.286;2023-05-13T11:34:36;4.00;;;3.05;;
40611;SDS011;26317;44.894;20.286;2023-05-13T11:37:07;5.40;;;3.15;;
40611;SDS011;26317;44.894;20.286;2023-05-13T11:39:38;6.88;;;3.42;;
40611;SDS011;26317;44.894;20.286;2023-05-13T11:44:43;4.57;;;3.38;;
40611;SDS011;26317;44.894;20.286;2023-05-13T11:47:19;11.48;;;3.63;;
40611;SDS011;26317;44.894;20.286;2023-05-13T11:49:54;6.03;;;2.90;;
40611;SDS011;26317;44.894;20.286;2023-05-13T11:52:25;5.82;;;3.33;;
40611;SDS011;26317;44.894;20.286;2023-05-13T11:54:56;7.22;;;3.33;;
40611;SDS011;26317;44.894;20.286;2023-05-13T11:57:27;8.25;;;3.75;;
40611;SDS011;26317;44.894;20.286;2023-05-13T11:59:59;3.95;;;3.35;;
40611;SDS011;26317;44.894;20.286;2023-05-13T12:02:34;5.53;;;2.88;;
40611;SDS011;26317;44.894;20.286;2023-05-13T12:05:10;4.00;;;2.92;;
40611;SDS011;26317;44.894;20.286;2023-05-13T12:07:41;6.20;;;2.78;;
40611;SDS011;26317;44.894;20.286;2023-05-13T12:12:42;8.95;;;3.58;;
40611;SDS011;26317;44.894;20.286;2023-05-13T12:15:14;13.50;;;3.58;;
40611;SDS011;26317;44.894;20.286;2023-05-13T12:17:50;7.78;;;3.83;;
40611;SDS011;26317;44.894;20.286;2023-05-13T12:20:21;7.15;;;3.40;;
40611;SDS011;26317;44.894;20.286;2023-05-13T12:22:54;6.35;;;3.40;;
40611;SDS011;26317;44.894;20.286;2023-05-13T12:25:31;5.78;;;3.47;;
40611;SDS011;26317;44.894;20.286;2023-05-13T12:28:13;8.15;;;3.92;;
40611;SDS011;26317;44.894;20.286;2023-05-13T12:30:50;6.68;;;3.78;;
40611;SDS011;26317;44.894;20.286;2023-05-13T12:33:25;8.98;;;3.75;;
40611;SDS011;26317;44.894;20.286;2023-05-13T12:38:52;9.00;;;3.63;;
40611;SDS011;26317;44.894;20.286;2023-05-13T12:41:26;5.43;;;3.70;;
40611;SDS011;26317;44.894;20.286;2023-05-13T12:44:01;4.47;;;2.97;;
40611;SDS011;26317;44.894;20.286;2023-05-13T12:46:32;4.43;;;3.42;;
40611;SDS011;26317;44.894;20.286;2023-05-13T12:49:10;6.18;;;3.25;;
40611;SDS011;26317;44.894;20.286;2023-05-13T12:51:41;10.38;;;2.75;;
40611;SDS011;26317;44.894;20.286;2023-05-13T12:54:11;4.57;;;3.08;;
40611;SDS011;26317;44.894;20.286;2023-05-13T12:56:42;6.10;;;3.58;;
40611;SDS011;26317;44.894;20.286;2023-05-13T12:59:16;5.18;;;2.85;;
40611;SDS011;26317;44.894;20.286;2023-05-13T13:01:47;5.93;;;3.13;;
40611;SDS011;26317;44.894;20.286;2023-05-13T13:04:20;6.00;;;3.20;;
40611;SDS011;26317;44.894;20.286;2023-05-13T13:06:50;7.22;;;3.03;;
40611;SDS011;26317;44.894;20.286;2023-05-13T13:09:21;7.63;;;3.38;;
40611;SDS011;26317;44.894;20.286;2023-05-13T13:11:51;7.40;;;3.15;;
40611;SDS011;26317;44.894;20.286;2023-05-13T13:14:30;6.57;;;3.10;;
40611;SDS011;26317;44.894;20.286;2023-05-13T13:17:00;6.13;;;2.97;;
40611;SDS011;26317;44.894;20.286;2023-05-13T13:19:33;5.28;;;2.63;;
40611;SDS011;26317;44.894;20.286;2023-05-13T13:22:03;5.13;;;2.90;;
40611;SDS011;26317;44.894;20.286;2023-05-13T13:24:36;4.45;;;2.90;;
40611;SDS011;26317;44.894;20.286;2023-05-13T13:27:06;5.50;;;3.00;;
40611;SDS011;26317;44.894;20.286;2023-05-13T13:29:37;6.95;;;3.40;;
40611;SDS011;26317;44.894;20.286;2023-05-13T13:32:07;5.57;;;2.83;;
40611;SDS011;26317;44.894;20.286;2023-05-13T13:34:40;6.63;;;3.33;;
40611;SDS011;26317;44.894;20.286;2023-05-13T13:37:10;4.47;;;2.42;;
40611;SDS011;26317;44.894;20.286;2023-05-13T13:39:44;5.20;;;2.60;;
40611;SDS011;26317;44.894;20.286;2023-05-13T13:42:14;9.98;;;4.30;;
40611;SDS011;26317;44.894;20.286;2023-05-13T13:44:44;8.40;;;3.55;;
40611;SDS011;26317;44.894;20.286;2023-05-13T13:47:15;6.85;;;2.90;;
40611;SDS011;26317;44.894;20.286;2023-05-13T13:49:47;6.45;;;2.78;;
40611;SDS011;26317;44.894;20.286;2023-05-13T13:52:18;7.32;;;3.28;;
40611;SDS011;26317;44.894;20.286;2023-05-13T13:54:50;5.88;;;3.25;;
40611;SDS011;26317;44.894;20.286;2023-05-13T13:57:20;4.43;;;3.20;;
40611;SDS011;26317;44.894;20.286;2023-05-13T13:59:51;7.95;;;3.55;;
40611;SDS011;26317;44.894;20.286;2023-05-13T14:02:21;7.78;;;4.93;;
40611;SDS011;26317;44.894;20.286;2023-05-13T14:04:54;6.10;;;4.93;;
40611;SDS011;26317;44.894;20.286;2023-05-13T14:07:24;7.88;;;4.55;;
40611;SDS011;26317;44.894;20.286;2023-05-13T14:09:57;11.35;;;4.28;;
40611;SDS011;26317;44.894;20.286;2023-05-13T14:12:27;6.25;;;3.10;;
40611;SDS011;26317;44.894;20.286;2023-05-13T14:14:57;5.40;;;3.83;;
40611;SDS011;26317;44.894;20.286;2023-05-13T14:17:27;9.18;;;5.20;;
40611;SDS011;26317;44.894;20.286;2023-05-13T14:20:00;9.52;;;5.20;;
40611;SDS011;26317;44.894;20.286;2023-05-13T14:22:31;7.70;;;5.25;;
40611;SDS011;26317;44.894;20.286;2023-05-13T14:25:01;8.75;;;5.78;;
40611;SDS011;26317;44.894;20.286;2023-05-13T14:27:31;7.63;;;2.78;;
40611;SDS011;26317;44.894;20.286;2023-05-13T14:30:02;10.50;;;2.90;;
40611;SDS011;26317;44.894;20.286;2023-05-13T14:35:06;4.63;;;2.53;;
40611;SDS011;26317;44.894;20.286;2023-05-13T14:37:38;6.03;;;2.53;;
40611;SDS011;26317;44.894;20.286;2023-05-13T14:40:10;4.55;;;2.28;;
40611;SDS011;26317;44.894;20.286;2023-05-13T14:42:41;7.32;;;2.72;;
40611;SDS011;26317;44.894;20.286;2023-05-13T14:45:11;3.15;;;1.98;;
40611;SDS011;26317;44.894;20.286;2023-05-13T14:47:44;7.93;;;2.63;;
40611;SDS011;26317;44.894;20.286;2023-05-13T14:50:18;4.47;;;2.33;;
40611;SDS011;26317;44.894;20.286;2023-05-13T14:52:51;2.33;;;2.00;;
40611;SDS011;26317;44.894;20.286;2023-05-13T14:55:22;5.70;;;2.55;;
40611;SDS011;26317;44.894;20.286;2023-05-13T14:57:52;5.25;;;2.65;;
40611;SDS011;26317;44.894;20.286;2023-05-13T15:00:22;8.93;;;3.28;;
40611;SDS011;26317;44.894;20.286;2023-05-13T15:02:53;2.85;;;2.33;;
40611;SDS011;26317;44.894;20.286;2023-05-13T15:05:26;4.72;;;2.50;;
40611;SDS011;26317;44.894;20.286;2023-05-13T15:07:58;4.60;;;2.47;;
40611;SDS011;26317;44.894;20.286;2023-05-13T15:10:29;5.72;;;2.28;;
40611;SDS011;26317;44.894;20.286;2023-05-13T15:12:59;3.97;;;2.10;;
40611;SDS011;26317;44.894;20.286;2023-05-13T15:15:29;3.10;;;2.20;;
40611;SDS011;26317;44.894;20.286;2023-05-13T15:18:00;3.05;;;1.77;;
40611;SDS011;26317;44.894;20.286;2023-05-13T15:20:37;3.78;;;2.38;;
40611;SDS011;26317;44.894;20.286;2023-05-13T15:23:07;6.47;;;2.85;;
40611;SDS011;26317;44.894;20.286;2023-05-13T15:25:37;8.70;;;7.23;;